Dahlia — 3FND5 — position and weather

sailwx.info

Track history (hours):
 
Tides and Currents Weather Stations Pressure Air Temp Water Temp Dewpoint Dewpoint Depression Visibility Wind Speed Wind Dir Waves Ship Positions

Dahlia

Last reported at 2018-Jan-07 09:28 UTC. Time now 2018-Feb-23 10:52 UTC.
Position S 24°43' W 046°40'.
Warning: this ship's position is 47 days out of date.

Length 145 m; draft 5.6 m.

Type: Cargo ship. MMSI: 352515000.

Date/timePositionNaut miles runAvg speedWind from/ knotsBaromVisibWave heightAir tempDewpointWater temp
2018-Jan-07 09:28S 24°43' W 046°40'612.7
2018-Jan-07 09:00S 24°37' W 046°38'612.8
2018-Jan-07 08:30S 24°31' W 046°35'612.9
2018-Jan-07 08:00S 24°25' W 046°32'612.9
2018-Jan-07 07:30S 24°20' W 046°29'713.0
2018-Jan-07 07:00S 24°14' W 046°26'713.0
2018-Jan-07 06:30S 24°08' W 046°23'612.7
2018-Jan-07 06:00S 24°02' W 046°21'4 8.0
2018-Jan-07 05:27S 23°58' W 046°18'  
2018-Jan-04 13:00S 23°59' W 046°17'4 7.3
2018-Jan-04 12:29S 24°02' W 046°21'4 7.6
2018-Jan-04 12:00S 24°05' W 046°22'510.1
2018-Jan-04 11:31S 24°10' W 046°20'2 3.0
2018-Jan-04 11:00S 24°09' W 046°19'0 0.0
2018-Jan-04 10:27S 24°09' W 046°19'0 0.0
2018-Jan-04 09:54S 24°09' W 046°19'0 0.0
2018-Jan-04 09:30S 24°09' W 046°19'0 0.0
2018-Jan-04 09:00S 24°09' W 046°19'0 0.0
2018-Jan-04 08:27S 24°09' W 046°19'0 0.0
2018-Jan-04 07:54S 24°09' W 046°19'0 0.0
2018-Jan-04 07:30S 24°09' W 046°19'0 0.0
2018-Jan-04 07:00S 24°09' W 046°19'0 0.0
2018-Jan-04 06:27S 24°09' W 046°19'0 0.0
2018-Jan-04 06:00S 24°09' W 046°19'0 0.0
2018-Jan-04 05:21S 24°09' W 046°19'0 0.0
2018-Jan-04 05:00S 24°09' W 046°19'0 0.0
2018-Jan-04 04:24S 24°09' W 046°19'0 0.0
2018-Jan-04 04:00S 24°09' W 046°19'0 0.0
2018-Jan-04 03:30S 24°09' W 046°19'0 0.0
2018-Jan-04 03:00S 24°09' W 046°19'0 0.0
2018-Jan-04 02:30S 24°09' W 046°19'0 0.1
2018-Jan-04 02:00S 24°09' W 046°19'2 3.2
2018-Jan-04 01:30S 24°10' W 046°20'3 5.2
2018-Jan-04 01:00S 24°12' W 046°21'3 6.7
2018-Jan-04 00:30S 24°15' W 046°22'5 9.6
2018-Jan-04 00:00S 24°20' W 046°22'611.3
2018-Jan-03 23:30S 24°26' W 046°22'510.4
2018-Jan-03 23:00S 24°29' W 046°18'  
Track history (hours):
 
Tides and Currents Weather Stations Pressure Air Temp Water Temp Dewpoint Dewpoint Depression Visibility Wind Speed Wind Dir Waves Ship Positions

Dahlia

Last reported at 2018-Jan-07 09:28 UTC. Time now 2018-Feb-23 10:52 UTC.
Position S 24°43' W 046°40'.
Warning: this ship's position is 47 days out of date.

Length 145 m; draft 5.6 m.

Type: Cargo ship. MMSI: 352515000.

Date/timePositionNaut miles runAvg speedWind from/ knotsBaromVisibWave heightAir tempDewpointWater temp
2018-Jan-07 09:28S 24°43' W 046°40'612.7
2018-Jan-07 09:00S 24°37' W 046°38'612.8
2018-Jan-07 08:30S 24°31' W 046°35'612.9
2018-Jan-07 08:00S 24°25' W 046°32'612.9
2018-Jan-07 07:30S 24°20' W 046°29'713.0
2018-Jan-07 07:00S 24°14' W 046°26'713.0
2018-Jan-07 06:30S 24°08' W 046°23'612.7
2018-Jan-07 06:00S 24°02' W 046°21'4 8.0
2018-Jan-07 05:27S 23°58' W 046°18'  
2018-Jan-04 13:00S 23°59' W 046°17'4 7.3
2018-Jan-04 12:29S 24°02' W 046°21'4 7.6
2018-Jan-04 12:00S 24°05' W 046°22'510.1
2018-Jan-04 11:31S 24°10' W 046°20'2 3.0
2018-Jan-04 11:00S 24°09' W 046°19'0 0.0
2018-Jan-04 10:27S 24°09' W 046°19'0 0.0
2018-Jan-04 09:54S 24°09' W 046°19'0 0.0
2018-Jan-04 09:30S 24°09' W 046°19'0 0.0
2018-Jan-04 09:00S 24°09' W 046°19'0 0.0
2018-Jan-04 08:27S 24°09' W 046°19'0 0.0
2018-Jan-04 07:54S 24°09' W 046°19'0 0.0
2018-Jan-04 07:30S 24°09' W 046°19'0 0.0
2018-Jan-04 07:00S 24°09' W 046°19'0 0.0
2018-Jan-04 06:27S 24°09' W 046°19'0 0.0
2018-Jan-04 06:00S 24°09' W 046°19'0 0.0
2018-Jan-04 05:21S 24°09' W 046°19'0 0.0
2018-Jan-04 05:00S 24°09' W 046°19'0 0.0
2018-Jan-04 04:24S 24°09' W 046°19'0 0.0
2018-Jan-04 04:00S 24°09' W 046°19'0 0.0
2018-Jan-04 03:30S 24°09' W 046°19'0 0.0
2018-Jan-04 03:00S 24°09' W 046°19'0 0.0
2018-Jan-04 02:30S 24°09' W 046°19'0 0.1
2018-Jan-04 02:00S 24°09' W 046°19'2 3.2
2018-Jan-04 01:30S 24°10' W 046°20'3 5.2
2018-Jan-04 01:00S 24°12' W 046°21'3 6.7
2018-Jan-04 00:30S 24°15' W 046°22'5 9.6
2018-Jan-04 00:00S 24°20' W 046°22'611.3
2018-Jan-03 23:30S 24°26' W 046°22'510.4
2018-Jan-03 23:00S 24°29' W 046°18'  

Dump ship's entire track history